Tasman Sea — WDB5559 — position and weather

sailwx.info

Track history (hours):
 
Tides and Currents Weather Stations Pressure Air Temp Water Temp Dewpoint Dewpoint Depression Visibility Wind Speed Wind Dir Waves Ship Positions

Tasman Sea

Owner: Kirby Offshore Marine, LLC, Staten Island, NY. More information available from US FCC via Universal Licensing System and Coast Guard Vessel Documentation Center.

Last reported at 2017-Jan-20 15:04 UTC. Time now 2017-Jan-20 20:15 UTC.
Position N 42°58' W 070°39'.

Length 151 m; draft 6 m.

Type: . MMSI: 366910960.

Date/timePositionNaut miles runAvg speedWind from/ knotsBaromVisibWave heightAir tempDewpointWater temp
2017-Jan-20 15:04N 42°58' W 070°39'4 7.4
2017-Jan-20 14:34N 42°55' W 070°38'7 7.3
2017-Jan-20 13:34N 42°48' W 070°35'7 7.2
2017-Jan-20 12:33N 42°41' W 070°32'6 5.8
2017-Jan-20 11:33N 42°36' W 070°34'7 7.1
2017-Jan-20 10:34N 42°31' W 070°41'7 7.1
2017-Jan-20 09:34N 42°26' W 070°49'7 6.9
2017-Jan-20 08:33N 42°21' W 070°56'5 5.3
2017-Jan-20 07:34N 42°22' W 071°03'2 2.4
2017-Jan-20 06:33N 42°24' W 071°01'0 0.0
2017-Jan-19 12:33N 42°24' W 071°01'3 2.5
2017-Jan-19 11:34N 42°21' W 071°02'0 0.1
2017-Jan-19 10:32N 42°21' W 071°02'2 2.1
2017-Jan-19 09:33N 42°20' W 070°60'7 6.6
2017-Jan-19 08:33N 42°23' W 070°52'6 6.4
2017-Jan-19 07:33N 42°19' W 070°45'7 6.5
2017-Jan-19 06:33N 42°14' W 070°39'6 6.3
2017-Jan-19 05:33N 42°09' W 070°35'179 5.4
2017-Jan-17 20:32N 40°27' W 073°51'7 6.9
2017-Jan-17 19:33N 40°29' W 073°59'12 5.1
2017-Jan-17 17:07N 40°32' W 074°15'0 0.1
2017-Jan-17 16:33N 40°32' W 074°15'3 3.5
2017-Jan-17 15:33N 40°35' W 074°12'4 3.3
2017-Jan-17 14:23N 40°38' W 074°10'0 0.0
2017-Jan-17 13:32N 40°38' W 074°10'0 0.0
2017-Jan-17 12:26N 40°38' W 074°10'3 3.0
2017-Jan-17 11:33N 40°36' W 074°12'4 0.6
2017-Jan-17 05:09N 40°33' W 074°15'0 0.8
2017-Jan-17 04:33N 40°33' W 074°14'6 5.9
2017-Jan-17 03:33N 40°38' W 074°10'0 0.0
2017-Jan-17 02:33N 40°38' W 074°10'0 0.2
2017-Jan-17 01:33N 40°39' W 074°10'7 6.8
2017-Jan-17 00:29N 40°32' W 074°15'  
2017-Jan-14 06:20N 40°33' W 074°15'6 7.6
2017-Jan-14 05:34N 40°38' W 074°12'7 6.8
2017-Jan-14 04:33N 40°39' W 074°03'6 6.0
2017-Jan-14 03:34N 40°44' W 073°58'65 8.0
2017-Jan-13 19:23N 41°07' W 072°37'6 7.1
2017-Jan-13 18:33N 41°09' W 072°30'7 7.1
2017-Jan-13 17:33N 41°11' W 072°21'98 7.0
2017-Jan-13 03:33N 42°10' W 070°36'9 9.0
2017-Jan-13 02:33N 42°18' W 070°43'8 8.4
2017-Jan-13 01:34N 42°23' W 070°52'7 7.1
2017-Jan-13 00:33N 42°21' W 071°01'3 3.0
2017-Jan-12 23:33N 42°24' W 071°01'0 0.0
2017-Jan-11 15:20N 42°24' W 071°01'0 0.5
2017-Jan-11 14:33N 42°24' W 071°01'2 2.2
2017-Jan-11 13:33N 42°21' W 071°02'0 0.0
2017-Jan-11 12:33N 42°21' W 071°02'0 0.0
2017-Jan-11 11:30N 42°21' W 071°02'0 0.0
2017-Jan-11 10:33N 42°21' W 071°02'0 0.0
2017-Jan-11 09:33N 42°21' W 071°02'0 0.0
2017-Jan-11 08:32N 42°21' W 071°02'0 0.0
2017-Jan-11 07:33N 42°21' W 071°02'0 0.0
2017-Jan-11 06:33N 42°21' W 071°02'0 0.0
2017-Jan-11 05:33N 42°21' W 071°02'0 0.0
2017-Jan-11 04:33N 42°21' W 071°02'0 0.0
2017-Jan-11 03:32N 42°21' W 071°02'0 0.0
2017-Jan-11 02:32N 42°21' W 071°02'0 0.0
2017-Jan-11 01:33N 42°21' W 071°02'0 0.0
2017-Jan-11 00:33N 42°21' W 071°02'0 0.0
2017-Jan-10 23:29N 42°21' W 071°02'0 0.0
2017-Jan-10 22:29N 42°21' W 071°02'0 0.0
2017-Jan-10 21:32N 42°21' W 071°02'0 0.1
2017-Jan-10 20:32N 42°21' W 071°02'0 0.1
2017-Jan-10 19:32N 42°21' W 071°02'0 0.0
2017-Jan-10 18:32N 42°21' W 071°02'0 0.0
2017-Jan-10 17:32N 42°21' W 071°02'0 0.0
2017-Jan-10 16:32N 42°21' W 071°02'0 0.0
2017-Jan-10 15:32N 42°21' W 071°02'  
Track history (hours):
 
Tides and Currents Weather Stations Pressure Air Temp Water Temp Dewpoint Dewpoint Depression Visibility Wind Speed Wind Dir Waves Ship Positions

Tasman Sea

Owner: Kirby Offshore Marine, LLC, Staten Island, NY. More information available from US FCC via Universal Licensing System and Coast Guard Vessel Documentation Center.

Last reported at 2017-Jan-20 15:04 UTC. Time now 2017-Jan-20 20:15 UTC.
Position N 42°58' W 070°39'.

Length 151 m; draft 6 m.

Type: . MMSI: 366910960.

Date/timePositionNaut miles runAvg speedWind from/ knotsBaromVisibWave heightAir tempDewpointWater temp
2017-Jan-20 15:04N 42°58' W 070°39'4 7.4
2017-Jan-20 14:34N 42°55' W 070°38'7 7.3
2017-Jan-20 13:34N 42°48' W 070°35'7 7.2
2017-Jan-20 12:33N 42°41' W 070°32'6 5.8
2017-Jan-20 11:33N 42°36' W 070°34'7 7.1
2017-Jan-20 10:34N 42°31' W 070°41'7 7.1
2017-Jan-20 09:34N 42°26' W 070°49'7 6.9
2017-Jan-20 08:33N 42°21' W 070°56'5 5.3
2017-Jan-20 07:34N 42°22' W 071°03'2 2.4
2017-Jan-20 06:33N 42°24' W 071°01'0 0.0
2017-Jan-19 12:33N 42°24' W 071°01'3 2.5
2017-Jan-19 11:34N 42°21' W 071°02'0 0.1
2017-Jan-19 10:32N 42°21' W 071°02'2 2.1
2017-Jan-19 09:33N 42°20' W 070°60'7 6.6
2017-Jan-19 08:33N 42°23' W 070°52'6 6.4
2017-Jan-19 07:33N 42°19' W 070°45'7 6.5
2017-Jan-19 06:33N 42°14' W 070°39'6 6.3
2017-Jan-19 05:33N 42°09' W 070°35'179 5.4
2017-Jan-17 20:32N 40°27' W 073°51'7 6.9
2017-Jan-17 19:33N 40°29' W 073°59'12 5.1
2017-Jan-17 17:07N 40°32' W 074°15'0 0.1
2017-Jan-17 16:33N 40°32' W 074°15'3 3.5
2017-Jan-17 15:33N 40°35' W 074°12'4 3.3
2017-Jan-17 14:23N 40°38' W 074°10'0 0.0
2017-Jan-17 13:32N 40°38' W 074°10'0 0.0
2017-Jan-17 12:26N 40°38' W 074°10'3 3.0
2017-Jan-17 11:33N 40°36' W 074°12'4 0.6
2017-Jan-17 05:09N 40°33' W 074°15'0 0.8
2017-Jan-17 04:33N 40°33' W 074°14'6 5.9
2017-Jan-17 03:33N 40°38' W 074°10'0 0.0
2017-Jan-17 02:33N 40°38' W 074°10'0 0.2
2017-Jan-17 01:33N 40°39' W 074°10'7 6.8
2017-Jan-17 00:29N 40°32' W 074°15'  
2017-Jan-14 06:20N 40°33' W 074°15'6 7.6
2017-Jan-14 05:34N 40°38' W 074°12'7 6.8
2017-Jan-14 04:33N 40°39' W 074°03'6 6.0
2017-Jan-14 03:34N 40°44' W 073°58'65 8.0
2017-Jan-13 19:23N 41°07' W 072°37'6 7.1
2017-Jan-13 18:33N 41°09' W 072°30'7 7.1
2017-Jan-13 17:33N 41°11' W 072°21'98 7.0
2017-Jan-13 03:33N 42°10' W 070°36'9 9.0
2017-Jan-13 02:33N 42°18' W 070°43'8 8.4
2017-Jan-13 01:34N 42°23' W 070°52'7 7.1
2017-Jan-13 00:33N 42°21' W 071°01'3 3.0
2017-Jan-12 23:33N 42°24' W 071°01'0 0.0
2017-Jan-11 15:20N 42°24' W 071°01'0 0.5
2017-Jan-11 14:33N 42°24' W 071°01'2 2.2
2017-Jan-11 13:33N 42°21' W 071°02'0 0.0
2017-Jan-11 12:33N 42°21' W 071°02'0 0.0
2017-Jan-11 11:30N 42°21' W 071°02'0 0.0
2017-Jan-11 10:33N 42°21' W 071°02'0 0.0
2017-Jan-11 09:33N 42°21' W 071°02'0 0.0
2017-Jan-11 08:32N 42°21' W 071°02'0 0.0
2017-Jan-11 07:33N 42°21' W 071°02'0 0.0
2017-Jan-11 06:33N 42°21' W 071°02'0 0.0
2017-Jan-11 05:33N 42°21' W 071°02'0 0.0
2017-Jan-11 04:33N 42°21' W 071°02'0 0.0
2017-Jan-11 03:32N 42°21' W 071°02'0 0.0
2017-Jan-11 02:32N 42°21' W 071°02'0 0.0
2017-Jan-11 01:33N 42°21' W 071°02'0 0.0
2017-Jan-11 00:33N 42°21' W 071°02'0 0.0
2017-Jan-10 23:29N 42°21' W 071°02'0 0.0
2017-Jan-10 22:29N 42°21' W 071°02'0 0.0
2017-Jan-10 21:32N 42°21' W 071°02'0 0.1
2017-Jan-10 20:32N 42°21' W 071°02'0 0.1
2017-Jan-10 19:32N 42°21' W 071°02'0 0.0
2017-Jan-10 18:32N 42°21' W 071°02'0 0.0
2017-Jan-10 17:32N 42°21' W 071°02'0 0.0
2017-Jan-10 16:32N 42°21' W 071°02'0 0.0
2017-Jan-10 15:32N 42°21' W 071°02'  

Dump ship's entire track history